sensor_id;sensor_type;location;lat;lon;timestamp;P1;durP1;ratioP1;P2;durP2;ratioP2
36001;SDS011;22070;50.922;5.430;2022-12-18T00:01:56;66.57;;;22.13;;
36001;SDS011;22070;50.922;5.430;2022-12-18T00:04:23;62.20;;;22.55;;
36001;SDS011;22070;50.922;5.430;2022-12-18T00:06:51;64.88;;;21.08;;
36001;SDS011;22070;50.922;5.430;2022-12-18T00:09:17;62.72;;;22.17;;
36001;SDS011;22070;50.922;5.430;2022-12-18T00:11:43;63.60;;;21.83;;
36001;SDS011;22070;50.922;5.430;2022-12-18T00:14:09;59.30;;;20.33;;
36001;SDS011;22070;50.922;5.430;2022-12-18T00:16:37;58.35;;;22.02;;
36001;SDS011;22070;50.922;5.430;2022-12-18T00:19:03;68.43;;;21.53;;
36001;SDS011;22070;50.922;5.430;2022-12-18T00:21:31;61.30;;;21.75;;
36001;SDS011;22070;50.922;5.430;2022-12-18T00:23:58;65.43;;;21.88;;
36001;SDS011;22070;50.922;5.430;2022-12-18T00:26:28;63.50;;;21.17;;
36001;SDS011;22070;50.922;5.430;2022-12-18T00:28:58;63.45;;;22.45;;
36001;SDS011;22070;50.922;5.430;2022-12-18T00:31:25;62.28;;;20.92;;
36001;SDS011;22070;50.922;5.430;2022-12-18T00:33:51;63.28;;;21.35;;
36001;SDS011;22070;50.922;5.430;2022-12-18T00:36:21;63.00;;;21.48;;
36001;SDS011;22070;50.922;5.430;2022-12-18T00:38:48;57.72;;;20.15;;
36001;SDS011;22070;50.922;5.430;2022-12-18T00:41:14;61.53;;;21.13;;
36001;SDS011;22070;50.922;5.430;2022-12-18T00:44:01;59.75;;;21.30;;
36001;SDS011;22070;50.922;5.430;2022-12-18T00:46:27;46.97;;;15.70;;
36001;SDS011;22070;50.922;5.430;2022-12-18T00:48:53;59.17;;;19.83;;
36001;SDS011;22070;50.922;5.430;2022-12-18T00:51:19;63.20;;;20.60;;
36001;SDS011;22070;50.922;5.430;2022-12-18T00:53:44;56.83;;;20.03;;
36001;SDS011;22070;50.922;5.430;2022-12-18T00:56:10;66.23;;;20.23;;
36001;SDS011;22070;50.922;5.430;2022-12-18T00:58:36;56.43;;;20.07;;
36001;SDS011;22070;50.922;5.430;2022-12-18T01:01:03;63.50;;;20.70;;
36001;SDS011;22070;50.922;5.430;2022-12-18T01:03:29;58.78;;;21.15;;
36001;SDS011;22070;50.922;5.430;2022-12-18T01:05:55;65.80;;;20.33;;
36001;SDS011;22070;50.922;5.430;2022-12-18T01:08:21;54.77;;;19.20;;
36001;SDS011;22070;50.922;5.430;2022-12-18T01:10:47;56.70;;;19.83;;
36001;SDS011;22070;50.922;5.430;2022-12-18T01:13:12;50.60;;;18.60;;
36001;SDS011;22070;50.922;5.430;2022-12-18T01:15:38;61.77;;;20.67;;
36001;SDS011;22070;50.922;5.430;2022-12-18T01:18:05;52.03;;;19.20;;
36001;SDS011;22070;50.922;5.430;2022-12-18T01:20:31;57.33;;;18.88;;
36001;SDS011;22070;50.922;5.430;2022-12-18T01:22:57;55.23;;;18.53;;
36001;SDS011;22070;50.922;5.430;2022-12-18T01:25:22;53.50;;;18.73;;
36001;SDS011;22070;50.922;5.430;2022-12-18T01:27:48;58.00;;;19.87;;
36001;SDS011;22070;50.922;5.430;2022-12-18T01:30:14;57.40;;;19.43;;
36001;SDS011;22070;50.922;5.430;2022-12-18T01:32:40;53.23;;;18.87;;
36001;SDS011;22070;50.922;5.430;2022-12-18T01:35:06;50.33;;;18.63;;
36001;SDS011;22070;50.922;5.430;2022-12-18T01:37:32;52.63;;;17.63;;
36001;SDS011;22070;50.922;5.430;2022-12-18T01:39:58;44.87;;;17.60;;
36001;SDS011;22070;50.922;5.430;2022-12-18T01:42:23;56.07;;;18.50;;
36001;SDS011;22070;50.922;5.430;2022-12-18T01:50:32;50.38;;;17.95;;
36001;SDS011;22070;50.922;5.430;2022-12-18T01:53:06;55.65;;;17.48;;
36001;SDS011;22070;50.922;5.430;2022-12-18T01:55:38;50.30;;;17.90;;
36001;SDS011;22070;50.922;5.430;2022-12-18T01:58:08;47.17;;;16.25;;
36001;SDS011;22070;50.922;5.430;2022-12-18T02:00:34;47.33;;;16.63;;
36001;SDS011;22070;50.922;5.430;2022-12-18T02:02:59;53.10;;;16.77;;
36001;SDS011;22070;50.922;5.430;2022-12-18T02:05:36;46.77;;;17.37;;
36001;SDS011;22070;50.922;5.430;2022-12-18T02:08:28;53.42;;;17.83;;
36001;SDS011;22070;50.922;5.430;2022-12-18T02:27:37;44.15;;;15.57;;
36001;SDS011;22070;50.922;5.430;2022-12-18T02:30:04;49.65;;;16.23;;
36001;SDS011;22070;50.922;5.430;2022-12-18T02:32:33;46.88;;;16.58;;
36001;SDS011;22070;50.922;5.430;2022-12-18T02:35:03;42.60;;;16.15;;
36001;SDS011;22070;50.922;5.430;2022-12-18T02:37:31;44.25;;;17.17;;
36001;SDS011;22070;50.922;5.430;2022-12-18T02:39:59;50.60;;;17.33;;
36001;SDS011;22070;50.922;5.430;2022-12-18T02:42:26;44.45;;;15.35;;
36001;SDS011;22070;50.922;5.430;2022-12-18T02:44:53;47.47;;;16.42;;
36001;SDS011;22070;50.922;5.430;2022-12-18T02:47:22;44.70;;;16.58;;
36001;SDS011;22070;50.922;5.430;2022-12-18T03:03:34;42.85;;;15.13;;
36001;SDS011;22070;50.922;5.430;2022-12-18T03:06:10;43.00;;;15.00;;
36001;SDS011;22070;50.922;5.430;2022-12-18T03:08:41;36.47;;;14.20;;
36001;SDS011;22070;50.922;5.430;2022-12-18T03:11:11;41.33;;;14.73;;
36001;SDS011;22070;50.922;5.430;2022-12-18T03:13:43;42.63;;;14.88;;
36001;SDS011;22070;50.922;5.430;2022-12-18T03:16:20;40.55;;;14.93;;
36001;SDS011;22070;50.922;5.430;2022-12-18T03:19:10;38.65;;;13.90;;
36001;SDS011;22070;50.922;5.430;2022-12-18T03:21:43;40.75;;;14.32;;
36001;SDS011;22070;50.922;5.430;2022-12-18T03:24:13;51.38;;;15.82;;
36001;SDS011;22070;50.922;5.430;2022-12-18T03:26:41;42.70;;;14.73;;
36001;SDS011;22070;50.922;5.430;2022-12-18T03:29:12;46.45;;;14.13;;
36001;SDS011;22070;50.922;5.430;2022-12-18T03:31:42;38.90;;;14.48;;
36001;SDS011;22070;50.922;5.430;2022-12-18T03:34:15;38.97;;;13.60;;
36001;SDS011;22070;50.922;5.430;2022-12-18T03:36:46;42.45;;;15.43;;
36001;SDS011;22070;50.922;5.430;2022-12-18T03:39:12;46.43;;;14.47;;
36001;SDS011;22070;50.922;5.430;2022-12-18T03:41:42;40.53;;;14.50;;
36001;SDS011;22070;50.922;5.430;2022-12-18T03:46:53;40.83;;;13.95;;
36001;SDS011;22070;50.922;5.430;2022-12-18T03:49:28;44.28;;;15.48;;
36001;SDS011;22070;50.922;5.430;2022-12-18T03:52:06;44.05;;;15.10;;
36001;SDS011;22070;50.922;5.430;2022-12-18T03:54:38;41.47;;;15.13;;
36001;SDS011;22070;50.922;5.430;2022-12-18T03:57:14;39.45;;;14.45;;
36001;SDS011;22070;50.922;5.430;2022-12-18T03:59:44;45.03;;;15.05;;
36001;SDS011;22070;50.922;5.430;2022-12-18T04:02:12;44.22;;;15.07;;
36001;SDS011;22070;50.922;5.430;2022-12-18T04:04:38;33.83;;;12.90;;
36001;SDS011;22070;50.922;5.430;2022-12-18T04:07:06;39.67;;;14.35;;
36001;SDS011;22070;50.922;5.430;2022-12-18T04:09:33;40.78;;;14.23;;
36001;SDS011;22070;50.922;5.430;2022-12-18T04:11:59;43.47;;;14.32;;
36001;SDS011;22070;50.922;5.430;2022-12-18T04:14:25;38.57;;;13.73;;
36001;SDS011;22070;50.922;5.430;2022-12-18T04:16:53;52.55;;;15.15;;
36001;SDS011;22070;50.922;5.430;2022-12-18T04:19:19;48.33;;;15.00;;
36001;SDS011;22070;50.922;5.430;2022-12-18T04:21:44;40.50;;;14.37;;
36001;SDS011;22070;50.922;5.430;2022-12-18T04:24:10;37.37;;;14.37;;
36001;SDS011;22070;50.922;5.430;2022-12-18T04:26:36;46.07;;;15.70;;
36001;SDS011;22070;50.922;5.430;2022-12-18T04:29:02;41.53;;;14.33;;
36001;SDS011;22070;50.922;5.430;2022-12-18T04:31:27;42.20;;;15.10;;
36001;SDS011;22070;50.922;5.430;2022-12-18T04:33:53;42.93;;;15.27;;
36001;SDS011;22070;50.922;5.430;2022-12-18T04:36:19;39.80;;;13.87;;
36001;SDS011;22070;50.922;5.430;2022-12-18T04:38:44;39.53;;;14.40;;
36001;SDS011;22070;50.922;5.430;2022-12-18T04:41:13;34.87;;;13.53;;
36001;SDS011;22070;50.922;5.430;2022-12-18T04:43:39;44.53;;;15.05;;
36001;SDS011;22070;50.922;5.430;2022-12-18T04:46:05;44.53;;;15.10;;
36001;SDS011;22070;50.922;5.430;2022-12-18T04:48:31;33.80;;;13.63;;
36001;SDS011;22070;50.922;5.430;2022-12-18T04:50:58;37.63;;;14.10;;
36001;SDS011;22070;50.922;5.430;2022-12-18T04:53:23;41.53;;;13.80;;
36001;SDS011;22070;50.922;5.430;2022-12-18T04:55:49;43.43;;;14.50;;
36001;SDS011;22070;50.922;5.430;2022-12-18T04:58:15;42.43;;;14.33;;
36001;SDS011;22070;50.922;5.430;2022-12-18T05:00:41;39.43;;;13.27;;
36001;SDS011;22070;50.922;5.430;2022-12-18T05:03:06;41.60;;;14.67;;
36001;SDS011;22070;50.922;5.430;2022-12-18T05:05:34;37.13;;;13.83;;
36001;SDS011;22070;50.922;5.430;2022-12-18T05:08:00;41.70;;;14.13;;
36001;SDS011;22070;50.922;5.430;2022-12-18T05:10:26;40.17;;;14.40;;
36001;SDS011;22070;50.922;5.430;2022-12-18T05:12:51;44.83;;;15.77;;
36001;SDS011;22070;50.922;5.430;2022-12-18T05:15:23;42.13;;;13.68;;
36001;SDS011;22070;50.922;5.430;2022-12-18T05:17:49;35.85;;;13.43;;
36001;SDS011;22070;50.922;5.430;2022-12-18T05:20:15;39.37;;;14.23;;
36001;SDS011;22070;50.922;5.430;2022-12-18T05:22:41;38.33;;;13.07;;
36001;SDS011;22070;50.922;5.430;2022-12-18T05:25:06;42.43;;;14.20;;
36001;SDS011;22070;50.922;5.430;2022-12-18T05:27:32;41.90;;;14.32;;
36001;SDS011;22070;50.922;5.430;2022-12-18T05:29:58;41.07;;;13.40;;
36001;SDS011;22070;50.922;5.430;2022-12-18T05:32:24;38.63;;;13.83;;
36001;SDS011;22070;50.922;5.430;2022-12-18T05:34:49;40.07;;;14.20;;
36001;SDS011;22070;50.922;5.430;2022-12-18T05:37:15;37.50;;;13.53;;
36001;SDS011;22070;50.922;5.430;2022-12-18T05:39:42;37.35;;;13.55;;
36001;SDS011;22070;50.922;5.430;2022-12-18T05:42:08;38.45;;;13.77;;
36001;SDS011;22070;50.922;5.430;2022-12-18T05:44:33;40.20;;;13.27;;
36001;SDS011;22070;50.922;5.430;2022-12-18T05:46:59;37.77;;;12.87;;
36001;SDS011;22070;50.922;5.430;2022-12-18T05:49:24;41.47;;;14.73;;
36001;SDS011;22070;50.922;5.430;2022-12-18T05:51:50;43.00;;;13.47;;
36001;SDS011;22070;50.922;5.430;2022-12-18T05:54:16;36.23;;;14.00;;
36001;SDS011;22070;50.922;5.430;2022-12-18T05:56:41;40.77;;;14.37;;
36001;SDS011;22070;50.922;5.430;2022-12-18T05:59:07;42.23;;;14.70;;
36001;SDS011;22070;50.922;5.430;2022-12-18T06:01:33;39.58;;;13.38;;
36001;SDS011;22070;50.922;5.430;2022-12-18T06:03:59;39.00;;;13.70;;
36001;SDS011;22070;50.922;5.430;2022-12-18T06:06:25;50.83;;;15.70;;
36001;SDS011;22070;50.922;5.430;2022-12-18T06:08:52;39.20;;;13.98;;
36001;SDS011;22070;50.922;5.430;2022-12-18T06:11:20;38.33;;;14.20;;
36001;SDS011;22070;50.922;5.430;2022-12-18T06:13:50;39.22;;;14.40;;
36001;SDS011;22070;50.922;5.430;2022-12-18T06:16:17;38.45;;;13.70;;
36001;SDS011;22070;50.922;5.430;2022-12-18T06:18:43;44.97;;;14.07;;
36001;SDS011;22070;50.922;5.430;2022-12-18T06:21:09;37.33;;;13.70;;
36001;SDS011;22070;50.922;5.430;2022-12-18T06:23:34;40.30;;;13.60;;
36001;SDS011;22070;50.922;5.430;2022-12-18T06:26:08;43.38;;;13.90;;
36001;SDS011;22070;50.922;5.430;2022-12-18T06:28:35;41.45;;;14.27;;
36001;SDS011;22070;50.922;5.430;2022-12-18T06:31:02;35.73;;;13.37;;
36001;SDS011;22070;50.922;5.430;2022-12-18T06:33:28;34.58;;;12.65;;
36001;SDS011;22070;50.922;5.430;2022-12-18T06:35:59;37.00;;;13.95;;
36001;SDS011;22070;50.922;5.430;2022-12-18T06:38:27;39.15;;;14.25;;
36001;SDS011;22070;50.922;5.430;2022-12-18T06:40:53;35.13;;;13.57;;
36001;SDS011;22070;50.922;5.430;2022-12-18T06:43:19;35.47;;;12.83;;
36001;SDS011;22070;50.922;5.430;2022-12-18T06:45:44;36.60;;;13.20;;
36001;SDS011;22070;50.922;5.430;2022-12-18T06:48:14;34.20;;;12.98;;
36001;SDS011;22070;50.922;5.430;2022-12-18T06:50:41;36.97;;;13.50;;
36001;SDS011;22070;50.922;5.430;2022-12-18T06:53:07;34.05;;;12.80;;
36001;SDS011;22070;50.922;5.430;2022-12-18T06:55:33;35.27;;;12.40;;
36001;SDS011;22070;50.922;5.430;2022-12-18T06:57:59;32.10;;;12.77;;
36001;SDS011;22070;50.922;5.430;2022-12-18T07:00:24;34.47;;;12.77;;
36001;SDS011;22070;50.922;5.430;2022-12-18T07:02:50;38.00;;;13.23;;
36001;SDS011;22070;50.922;5.430;2022-12-18T07:05:15;30.30;;;12.30;;
36001;SDS011;22070;50.922;5.430;2022-12-18T07:07:41;32.23;;;12.53;;
36001;SDS011;22070;50.922;5.430;2022-12-18T07:10:07;37.73;;;11.97;;
36001;SDS011;22070;50.922;5.430;2022-12-18T07:12:33;32.08;;;12.25;;
36001;SDS011;22070;50.922;5.430;2022-12-18T07:14:58;34.80;;;12.77;;
36001;SDS011;22070;50.922;5.430;2022-12-18T07:17:24;36.40;;;13.13;;
36001;SDS011;22070;50.922;5.430;2022-12-18T07:19:50;36.00;;;13.20;;
36001;SDS011;22070;50.922;5.430;2022-12-18T07:22:15;37.30;;;13.10;;
36001;SDS011;22070;50.922;5.430;2022-12-18T07:24:41;36.80;;;13.47;;
36001;SDS011;22070;50.922;5.430;2022-12-18T07:27:07;33.27;;;12.87;;
36001;SDS011;22070;50.922;5.430;2022-12-18T07:29:32;36.90;;;12.30;;
36001;SDS011;22070;50.922;5.430;2022-12-18T07:31:58;32.53;;;11.93;;
36001;SDS011;22070;50.922;5.430;2022-12-18T07:34:24;36.53;;;14.00;;
36001;SDS011;22070;50.922;5.430;2022-12-18T07:36:49;36.50;;;12.70;;
36001;SDS011;22070;50.922;5.430;2022-12-18T07:39:15;37.47;;;13.40;;
36001;SDS011;22070;50.922;5.430;2022-12-18T07:41:41;40.50;;;12.60;;
36001;SDS011;22070;50.922;5.430;2022-12-18T07:44:29;39.28;;;14.23;;
36001;SDS011;22070;50.922;5.430;2022-12-18T07:46:55;34.30;;;12.83;;
36001;SDS011;22070;50.922;5.430;2022-12-18T07:49:20;38.23;;;13.73;;
36001;SDS011;22070;50.922;5.430;2022-12-18T07:51:46;36.77;;;13.03;;
36001;SDS011;22070;50.922;5.430;2022-12-18T07:54:14;35.17;;;11.85;;
36001;SDS011;22070;50.922;5.430;2022-12-18T07:56:40;27.23;;;11.43;;
36001;SDS011;22070;50.922;5.430;2022-12-18T07:59:05;39.60;;;12.17;;
36001;SDS011;22070;50.922;5.430;2022-12-18T08:01:31;32.63;;;11.87;;
36001;SDS011;22070;50.922;5.430;2022-12-18T08:03:58;34.00;;;12.25;;
36001;SDS011;22070;50.922;5.430;2022-12-18T08:06:24;36.83;;;12.80;;
36001;SDS011;22070;50.922;5.430;2022-12-18T08:08:54;34.35;;;12.77;;
36001;SDS011;22070;50.922;5.430;2022-12-18T08:11:21;30.35;;;11.00;;
36001;SDS011;22070;50.922;5.430;2022-12-18T08:13:47;32.88;;;12.32;;
36001;SDS011;22070;50.922;5.430;2022-12-18T08:16:13;33.30;;;10.73;;
36001;SDS011;22070;50.922;5.430;2022-12-18T08:18:39;34.10;;;12.13;;
36001;SDS011;22070;50.922;5.430;2022-12-18T08:21:12;32.80;;;10.95;;
36001;SDS011;22070;50.922;5.430;2022-12-18T08:23:40;31.45;;;11.18;;
36001;SDS011;22070;50.922;5.430;2022-12-18T08:26:06;26.90;;;10.30;;
36001;SDS011;22070;50.922;5.430;2022-12-18T08:28:32;25.73;;;10.63;;
36001;SDS011;22070;50.922;5.430;2022-12-18T08:30:58;29.58;;;11.43;;
36001;SDS011;22070;50.922;5.430;2022-12-18T08:33:24;31.23;;;11.00;;
36001;SDS011;22070;50.922;5.430;2022-12-18T08:35:51;32.15;;;10.35;;
36001;SDS011;22070;50.922;5.430;2022-12-18T08:38:17;32.40;;;11.83;;
36001;SDS011;22070;50.922;5.430;2022-12-18T08:40:42;28.93;;;10.67;;
36001;SDS011;22070;50.922;5.430;2022-12-18T08:43:09;29.03;;;11.80;;
36001;SDS011;22070;50.922;5.430;2022-12-18T08:45:54;25.90;;;11.68;;
36001;SDS011;22070;50.922;5.430;2022-12-18T08:48:20;29.05;;;11.10;;
36001;SDS011;22070;50.922;5.430;2022-12-18T08:50:56;23.87;;;10.57;;
36001;SDS011;22070;50.922;5.430;2022-12-18T08:53:23;28.45;;;10.32;;
36001;SDS011;22070;50.922;5.430;2022-12-18T08:55:49;24.33;;;10.17;;
36001;SDS011;22070;50.922;5.430;2022-12-18T08:58:15;23.10;;;10.13;;
36001;SDS011;22070;50.922;5.430;2022-12-18T09:00:40;23.73;;;9.57;;
36001;SDS011;22070;50.922;5.430;2022-12-18T09:03:10;24.70;;;9.87;;
36001;SDS011;22070;50.922;5.430;2022-12-18T09:05:40;23.02;;;10.18;;
36001;SDS011;22070;50.922;5.430;2022-12-18T09:08:06;23.90;;;10.97;;
36001;SDS011;22070;50.922;5.430;2022-12-18T09:10:32;21.93;;;9.53;;
36001;SDS011;22070;50.922;5.430;2022-12-18T09:12:58;25.07;;;9.70;;
36001;SDS011;22070;50.922;5.430;2022-12-18T09:15:23;23.70;;;9.33;;
36001;SDS011;22070;50.922;5.430;2022-12-18T09:17:49;24.17;;;10.13;;
36001;SDS011;22070;50.922;5.430;2022-12-18T09:20:15;23.27;;;9.07;;
36001;SDS011;22070;50.922;5.430;2022-12-18T09:22:41;23.95;;;10.82;;
36001;SDS011;22070;50.922;5.430;2022-12-18T09:25:07;24.10;;;9.77;;
36001;SDS011;22070;50.922;5.430;2022-12-18T09:27:33;22.60;;;10.00;;
36001;SDS011;22070;50.922;5.430;2022-12-18T09:29:59;26.02;;;10.35;;
36001;SDS011;22070;50.922;5.430;2022-12-18T09:32:25;28.87;;;11.20;;
36001;SDS011;22070;50.922;5.430;2022-12-18T09:34:51;26.47;;;10.17;;
36001;SDS011;22070;50.922;5.430;2022-12-18T09:37:16;30.97;;;14.40;;
36001;SDS011;22070;50.922;5.430;2022-12-18T09:39:42;28.90;;;12.83;;
36001;SDS011;22070;50.922;5.430;2022-12-18T09:42:21;26.37;;;12.03;;
36001;SDS011;22070;50.922;5.430;2022-12-18T09:44:51;23.55;;;10.18;;
36001;SDS011;22070;50.922;5.430;2022-12-18T09:49:56;22.83;;;10.30;;
36001;SDS011;22070;50.922;5.430;2022-12-18T09:52:45;26.23;;;11.27;;
36001;SDS011;22070;50.922;5.430;2022-12-18T09:55:31;25.15;;;10.55;;
36001;SDS011;22070;50.922;5.430;2022-12-18T09:58:05;23.48;;;9.93;;
36001;SDS011;22070;50.922;5.430;2022-12-18T10:00:40;22.45;;;10.45;;
36001;SDS011;22070;50.922;5.430;2022-12-18T10:03:10;25.27;;;11.43;;
36001;SDS011;22070;50.922;5.430;2022-12-18T10:05:46;21.38;;;10.63;;
36001;SDS011;22070;50.922;5.430;2022-12-18T10:08:20;22.02;;;10.50;;
36001;SDS011;22070;50.922;5.430;2022-12-18T10:10:57;23.30;;;10.48;;
36001;SDS011;22070;50.922;5.430;2022-12-18T10:13:33;21.85;;;10.10;;
36001;SDS011;22070;50.922;5.430;2022-12-18T10:19:18;62.47;;;30.75;;
36001;SDS011;22070;50.922;5.430;2022-12-18T10:27:40;19.85;;;9.82;;
36001;SDS011;22070;50.922;5.430;2022-12-18T10:30:13;24.30;;;9.80;;
36001;SDS011;22070;50.922;5.430;2022-12-18T10:32:44;23.27;;;10.10;;
36001;SDS011;22070;50.922;5.430;2022-12-18T10:35:31;22.67;;;10.47;;
36001;SDS011;22070;50.922;5.430;2022-12-18T10:37:59;19.95;;;9.73;;
36001;SDS011;22070;50.922;5.430;2022-12-18T10:41:23;21.52;;;9.93;;
36001;SDS011;22070;50.922;5.430;2022-12-18T10:51:46;26.77;;;10.75;;
36001;SDS011;22070;50.922;5.430;2022-12-18T10:54:14;22.20;;;10.05;;
36001;SDS011;22070;50.922;5.430;2022-12-18T10:56:43;25.20;;;10.35;;
36001;SDS011;22070;50.922;5.430;2022-12-18T10:59:10;23.40;;;10.57;;
36001;SDS011;22070;50.922;5.430;2022-12-18T11:04:26;24.35;;;11.32;;
36001;SDS011;22070;50.922;5.430;2022-12-18T11:07:06;34.08;;;10.48;;
36001;SDS011;22070;50.922;5.430;2022-12-18T11:09:37;22.50;;;10.45;;
36001;SDS011;22070;50.922;5.430;2022-12-18T11:12:25;25.13;;;10.75;;
36001;SDS011;22070;50.922;5.430;2022-12-18T11:14:53;23.42;;;10.98;;
36001;SDS011;22070;50.922;5.430;2022-12-18T11:17:27;20.65;;;9.50;;
36001;SDS011;22070;50.922;5.430;2022-12-18T11:19:57;23.98;;;10.52;;
36001;SDS011;22070;50.922;5.430;2022-12-18T11:22:25;24.67;;;10.40;;
36001;SDS011;22070;50.922;5.430;2022-12-18T11:27:47;24.52;;;10.55;;
36001;SDS011;22070;50.922;5.430;2022-12-18T11:33:32;25.60;;;10.73;;
36001;SDS011;22070;50.922;5.430;2022-12-18T11:35:47;25.80;;;11.15;;
36001;SDS011;22070;50.922;5.430;2022-12-18T11:38:23;21.42;;;10.45;;
36001;SDS011;22070;50.922;5.430;2022-12-18T11:43:54;27.58;;;11.63;;
36001;SDS011;22070;50.922;5.430;2022-12-18T11:46:34;26.95;;;12.15;;
36001;SDS011;22070;50.922;5.430;2022-12-18T11:49:06;24.08;;;11.38;;
36001;SDS011;22070;50.922;5.430;2022-12-18T11:51:46;24.83;;;11.10;;
36001;SDS011;22070;50.922;5.430;2022-12-18T11:54:16;25.63;;;11.68;;
36001;SDS011;22070;50.922;5.430;2022-12-18T11:56:53;24.38;;;11.85;;
36001;SDS011;22070;50.922;5.430;2022-12-18T11:59:55;23.95;;;10.60;;
36001;SDS011;22070;50.922;5.430;2022-12-18T12:05:18;24.70;;;11.05;;
36001;SDS011;22070;50.922;5.430;2022-12-18T12:10:35;23.38;;;10.30;;
36001;SDS011;22070;50.922;5.430;2022-12-18T12:22:13;18.23;;;9.70;;
36001;SDS011;22070;50.922;5.430;2022-12-18T12:27:52;21.00;;;10.40;;
36001;SDS011;22070;50.922;5.430;2022-12-18T12:30:35;25.15;;;10.45;;
36001;SDS011;22070;50.922;5.430;2022-12-18T12:33:14;21.80;;;10.43;;
36001;SDS011;22070;50.922;5.430;2022-12-18T12:35:59;22.20;;;10.25;;
36001;SDS011;22070;50.922;5.430;2022-12-18T12:38:42;22.85;;;10.75;;
36001;SDS011;22070;50.922;5.430;2022-12-18T12:41:15;21.33;;;10.93;;
36001;SDS011;22070;50.922;5.430;2022-12-18T12:44:05;23.02;;;12.30;;
36001;SDS011;22070;50.922;5.430;2022-12-18T12:46:35;23.92;;;11.70;;
36001;SDS011;22070;50.922;5.430;2022-12-18T12:49:08;28.50;;;12.75;;
36001;SDS011;22070;50.922;5.430;2022-12-18T12:51:41;27.17;;;11.57;;
36001;SDS011;22070;50.922;5.430;2022-12-18T12:54:20;24.52;;;11.75;;
36001;SDS011;22070;50.922;5.430;2022-12-18T12:56:57;22.45;;;11.05;;
36001;SDS011;22070;50.922;5.430;2022-12-18T13:07:59;28.65;;;11.68;;
36001;SDS011;22070;50.922;5.430;2022-12-18T13:10:40;24.25;;;12.07;;
36001;SDS011;22070;50.922;5.430;2022-12-18T13:20:34;22.48;;;10.95;;
36001;SDS011;22070;50.922;5.430;2022-12-18T13:25:51;23.05;;;11.40;;
36001;SDS011;22070;50.922;5.430;2022-12-18T13:31:11;28.23;;;11.48;;
36001;SDS011;22070;50.922;5.430;2022-12-18T13:33:39;21.30;;;11.23;;
36001;SDS011;22070;50.922;5.430;2022-12-18T13:38:39;26.27;;;12.27;;
36001;SDS011;22070;50.922;5.430;2022-12-18T13:46:24;25.15;;;11.68;;
36001;SDS011;22070;50.922;5.430;2022-12-18T13:51:38;26.80;;;12.20;;
36001;SDS011;22070;50.922;5.430;2022-12-18T13:56:45;25.80;;;12.02;;
36001;SDS011;22070;50.922;5.430;2022-12-18T13:59:13;28.50;;;13.07;;
36001;SDS011;22070;50.922;5.430;2022-12-18T14:01:52;29.10;;;12.63;;
36001;SDS011;22070;50.922;5.430;2022-12-18T14:04:32;27.27;;;12.73;;
36001;SDS011;22070;50.922;5.430;2022-12-18T14:07:06;29.73;;;12.73;;
36001;SDS011;22070;50.922;5.430;2022-12-18T14:09:37;23.58;;;12.98;;
36001;SDS011;22070;50.922;5.430;2022-12-18T14:12:17;28.67;;;13.27;;
36001;SDS011;22070;50.922;5.430;2022-12-18T14:15:10;22.50;;;10.45;;
36001;SDS011;22070;50.922;5.430;2022-12-18T14:17:55;32.63;;;14.35;;
36001;SDS011;22070;50.922;5.430;2022-12-18T14:20:32;27.17;;;12.77;;
36001;SDS011;22070;50.922;5.430;2022-12-18T14:22:59;27.98;;;13.65;;
36001;SDS011;22070;50.922;5.430;2022-12-18T14:25:29;27.43;;;13.73;;
36001;SDS011;22070;50.922;5.430;2022-12-18T14:30:41;28.58;;;14.63;;
36001;SDS011;22070;50.922;5.430;2022-12-18T14:35:35;26.38;;;13.27;;
36001;SDS011;22070;50.922;5.430;2022-12-18T14:38:10;33.35;;;14.18;;
36001;SDS011;22070;50.922;5.430;2022-12-18T14:40:57;34.47;;;14.32;;
36001;SDS011;22070;50.922;5.430;2022-12-18T14:43:25;28.05;;;13.95;;
36001;SDS011;22070;50.922;5.430;2022-12-18T14:45:51;28.17;;;13.60;;
36001;SDS011;22070;50.922;5.430;2022-12-18T14:48:22;29.53;;;13.97;;
36001;SDS011;22070;50.922;5.430;2022-12-18T14:53:32;34.83;;;14.77;;
36001;SDS011;22070;50.922;5.430;2022-12-18T14:55:57;36.63;;;15.25;;
36001;SDS011;22070;50.922;5.430;2022-12-18T14:58:23;36.13;;;16.13;;
36001;SDS011;22070;50.922;5.430;2022-12-18T15:00:49;34.80;;;15.90;;
36001;SDS011;22070;50.922;5.430;2022-12-18T15:03:18;33.73;;;15.50;;
36001;SDS011;22070;50.922;5.430;2022-12-18T15:05:46;33.50;;;14.80;;
36001;SDS011;22070;50.922;5.430;2022-12-18T15:08:28;28.40;;;14.03;;
36001;SDS011;22070;50.922;5.430;2022-12-18T15:10:56;30.10;;;14.60;;
36001;SDS011;22070;50.922;5.430;2022-12-18T15:13:22;31.92;;;15.00;;
36001;SDS011;22070;50.922;5.430;2022-12-18T15:15:49;31.92;;;14.52;;
36001;SDS011;22070;50.922;5.430;2022-12-18T15:18:16;29.25;;;14.30;;
36001;SDS011;22070;50.922;5.430;2022-12-18T15:26:13;29.35;;;13.30;;
36001;SDS011;22070;50.922;5.430;2022-12-18T15:31:30;26.60;;;14.23;;
36001;SDS011;22070;50.922;5.430;2022-12-18T15:34:21;29.02;;;13.90;;
36001;SDS011;22070;50.922;5.430;2022-12-18T15:36:46;27.42;;;13.18;;
36001;SDS011;22070;50.922;5.430;2022-12-18T15:39:12;30.80;;;14.63;;
36001;SDS011;22070;50.922;5.430;2022-12-18T15:41:38;31.13;;;15.63;;
36001;SDS011;22070;50.922;5.430;2022-12-18T15:44:20;31.13;;;16.08;;
36001;SDS011;22070;50.922;5.430;2022-12-18T15:46:47;33.47;;;14.38;;
36001;SDS011;22070;50.922;5.430;2022-12-18T15:49:13;31.92;;;15.38;;
36001;SDS011;22070;50.922;5.430;2022-12-18T15:51:39;33.55;;;15.50;;
36001;SDS011;22070;50.922;5.430;2022-12-18T15:54:05;32.93;;;15.10;;
36001;SDS011;22070;50.922;5.430;2022-12-18T15:56:36;29.30;;;14.77;;
36001;SDS011;22070;50.922;5.430;2022-12-18T15:59:20;36.90;;;16.90;;
36001;SDS011;22070;50.922;5.430;2022-12-18T16:01:47;37.25;;;16.42;;
36001;SDS011;22070;50.922;5.430;2022-12-18T16:04:15;32.50;;;15.48;;
36001;SDS011;22070;50.922;5.430;2022-12-18T16:06:44;34.75;;;16.05;;
36001;SDS011;22070;50.922;5.430;2022-12-18T16:09:10;34.78;;;16.27;;
36001;SDS011;22070;50.922;5.430;2022-12-18T16:11:36;30.00;;;15.45;;
36001;SDS011;22070;50.922;5.430;2022-12-18T16:14:05;35.50;;;16.83;;
36001;SDS011;22070;50.922;5.430;2022-12-18T16:16:35;34.47;;;15.90;;
36001;SDS011;22070;50.922;5.430;2022-12-18T16:19:01;31.38;;;15.85;;
36001;SDS011;22070;50.922;5.430;2022-12-18T16:21:27;35.50;;;16.13;;
36001;SDS011;22070;50.922;5.430;2022-12-18T16:23:52;33.03;;;16.08;;
36001;SDS011;22070;50.922;5.430;2022-12-18T16:26:18;35.10;;;15.40;;
36001;SDS011;22070;50.922;5.430;2022-12-18T16:28:44;31.38;;;15.68;;
36001;SDS011;22070;50.922;5.430;2022-12-18T16:31:09;31.55;;;15.55;;
36001;SDS011;22070;50.922;5.430;2022-12-18T16:33:35;32.93;;;15.63;;
36001;SDS011;22070;50.922;5.430;2022-12-18T16:36:01;34.00;;;15.93;;
36001;SDS011;22070;50.922;5.430;2022-12-18T16:38:26;33.20;;;16.33;;
36001;SDS011;22070;50.922;5.430;2022-12-18T16:40:52;33.88;;;16.02;;
36001;SDS011;22070;50.922;5.430;2022-12-18T16:43:36;33.38;;;15.60;;
36001;SDS011;22070;50.922;5.430;2022-12-18T16:46:01;33.70;;;15.90;;
36001;SDS011;22070;50.922;5.430;2022-12-18T16:48:27;35.95;;;16.92;;
36001;SDS011;22070;50.922;5.430;2022-12-18T16:51:00;32.27;;;16.17;;
36001;SDS011;22070;50.922;5.430;2022-12-18T16:53:28;37.00;;;16.35;;